SLVRSLLP

Guest
Details From SLVR - VIRU VIRU INTL
To SLLP - La Paz
Flight Number -
Tags decoded
Created
Modified
Stats Distance 298 nm / 552 km
Max Altitude 0 ft / 0 m
Waypoints 2
Social Downloads 0
Likes 0
Share VATSIM

Download

Looking for another format? Having issues loading an existing format? Contact us
Advertisement - Login to hide

Notes

Requested: SLVR SALBI GUVAS DOLGI PUNAV MOSGO MEVOT TERAX SLLP Unmatched points: SALBI GUVAS DOLGI PUNAV MOSGO MEVOT TERAX

Route

SLVR SLLP

ID Type Via Altitude Latitude Longitude Leg Dist Tot Dist Heading (true) Name
O SLVR APT - 0 ft / 0 m -17.64476˚ -63.13536˚ - 0 nm - VIRU VIRU INTL
O SLLP APT - 0 ft / 0 m -16.50936˚ -68.19055˚ 298 nm 298 nm 282° / 284° La Paz

Altitude Profile

Advertisement - Login to hide

Weather


0- 5 10 15 20 25 30 35+ Temperature / ° C

Clouds and Precipitation
Forecast for 2017-12-14 00:00 UTC. Updated 2 hours ago

Ground ~20,000 ft ~40,000 ft Winds

SLVR

Details ICAO SLVR (VVI)
Name VIRU VIRU INTL
Region Bolivia
Timezone America/La_Paz (UTC-4.0)
Stats Elevation 1,225 ft / 373 m (AMSL)
Location -17.644755° -63.135362°
Runways 1
Magnetic Variation 11.892° W

METAR

SLVR 132300Z 35005KT 9999 FEW020 30/22 Q1007

Decode

TAF

TAF SLVR 131550Z 1318/1418 33015KT 9999 SCT020 TX35/1319Z TN23/1410Z BECMG 1323/1401 34008KT NSC PROB30 TEMPO 1409/1412 SCT008 BECMG 1415/ 1418 33015G25KT SCT020

Decode

Departure Runways

ID Width Length Bearing (true) Bearing (mag) Surface Threshold Offset Overrun Length
16 148 ft / 45 m 11,519 ft / 3,511 m 147.35° 159.24° Concrete 0 ft / 0 m 197 ft / 60 m
34 148 ft / 45 m 11,519 ft / 3,511 m 327.34° 339.23° Concrete 0 ft / 0 m 197 ft / 60 m

SLLP

Details ICAO SLLP (LPB)
Name La Paz
Region Bolivia
Timezone America/La_Paz (UTC-4.0)
Stats Elevation 13,313 ft / 4,058 m (AMSL)
Location -16.509356° -68.190551°
Runways 2
Magnetic Variation 7.916° W

METAR

SLLP 132300Z 11008KT 9999 FEW017 FEW020CB 14/01 Q1034

Decode

TAF

TAF SLLP 131600Z 1318/1418 13010KT 9999 FEW020 TX19/1320Z TN04/1410Z TEMPO 1319/1322 13010G20KT 8000 VCSH FEW020 FEW023CB BECMG 1323/1402 08005KT SCT013 TEMPO 1406/1410 3000E VCFG FEW002 SCT013 BECMG 1412/ 1414 10007KT SCT017

Decode

Destination Runways

ID Width Length Bearing (true) Bearing (mag) Surface Threshold Offset Overrun Length
10 151 ft / 46 m 13,106 ft / 3,995 m 91.90° 99.82° Concrete 0 ft / 0 m 200 ft / 61 m
10L 300 ft / 91 m 6,718 ft / 2,048 m 97.72° 105.64° Dirt 0 ft / 0 m 0 ft / 0 m
28 151 ft / 46 m 13,106 ft / 3,995 m 271.89° 279.81° Concrete 0 ft / 0 m 0 ft / 0 m
28R 300 ft / 91 m 6,718 ft / 2,048 m 277.71° 285.63° Dirt 0 ft / 0 m 0 ft / 0 m

Approach Navaids

Runway Type Ident Frequency Range Bearing (true) Bearing (mag) Slope Elevation
10 Localiser ILPA 110.30 MHz 18 nm / 33 km 91.89° 99.81° - 13,313 ft / 4,058 m (AMSL)
10 Glidescope ILPA 110.30 MHz 10 nm / 19 km 91.89° 99.81° 2.40° 13,313 ft / 4,058 m (AMSL)

Popular Alternatives